Terminal Aerodrome Forecast
Issued by NWS

Home | Current Version | Previous Version | Text Only | Print | Product List | Glossary On
Versions: 1 2 3 4 5 6 7 8 9 10 11 12 13 14 15
000
FTUS45 KRIW 012300
TAFBPI
TAF
KBPI 012324Z 0200/0224 25006KT P6SM SCT070
     FM020300 VRB06KT P6SM FEW080
     FM021900 23008KT P6SM VCSH SCT060 BKN130=

USA.gov is the U.S. government's official web portal to all federal, state and local government web resources and services.